Time;durP1;ratioP1;P1;durP2;ratioP2;P2;SDS_P1;SDS_P2;PMS_P1;PMS_P2;Temp;Humidity;BMP_temperature;BMP_pressure;BME280_temperature;BME280_humidity;BME280_pressure;Samples;Min_cycle;Max_cycle;Signal;HPM_P1;HPM_P2
2022/12/13 00:01:32;;;;;;;14.75;7.55;;;-1.20;77.50;;;;;;5098009;28;20025;-75
2022/12/13 00:04:00;;;;;;;15.85;6.53;;;-1.20;78.10;;;;;;5115834;28;20023;-75
2022/12/13 00:06:27;;;;;;;25.67;7.38;;;-1.20;78.30;;;;;;5114796;28;20031;-75
2022/12/13 00:08:53;;;;;;;17.95;7.70;;;-1.20;78.30;;;;;;5114768;28;20043;-75
2022/12/13 00:11:20;;;;;;;18.63;7.03;;;-1.30;78.30;;;;;;5114705;28;20020;-75
2022/12/13 00:13:46;;;;;;;15.68;7.72;;;-1.30;78.20;;;;;;5114882;28;20024;-75
2022/12/13 00:16:15;;;;;;;22.02;8.38;;;-1.30;78.20;;;;;;5114726;28;20036;-75
2022/12/13 00:18:41;;;;;;;18.67;8.13;;;-1.30;78.10;;;;;;5115583;28;20020;-75
2022/12/13 00:21:10;;;;;;;20.75;9.07;;;-1.30;78.80;;;;;;5115486;28;20028;-75
2022/12/13 00:23:35;;;;;;;22.67;7.95;;;-1.30;78.10;;;;;;5115470;28;20016;-75
2022/12/13 00:26:05;;;;;;;18.67;7.53;;;-1.30;78.10;;;;;;5097590;28;20017;-75
2022/12/13 00:28:31;;;;;;;22.27;8.57;;;-1.30;78.10;;;;;;5115449;28;20031;-75
2022/12/13 00:31:01;;;;;;;19.58;8.15;;;-1.30;78.20;;;;;;5114501;28;20020;-75
2022/12/13 00:33:27;;;;;;;20.98;8.98;;;-1.30;78.10;;;;;;5114265;28;20036;-75
2022/12/13 00:35:53;;;;;;;17.50;7.63;;;-1.30;78.00;;;;;;5114180;28;20017;-75
2022/12/13 00:38:19;;;;;;;21.38;8.88;;;-1.30;78.00;;;;;;5114361;28;20028;-75
2022/12/13 00:40:45;;;;;;;15.85;7.20;;;-1.40;78.10;;;;;;5097301;28;20024;-75
2022/12/13 00:43:11;;;;;;;20.92;7.28;;;-1.50;78.10;;;;;;5114052;28;20025;-75
2022/12/13 00:45:37;;;;;;;12.60;7.32;;;-1.50;78.30;;;;;;5114855;28;20036;-75
2022/12/13 00:48:03;;;;;;;14.98;7.15;;;-1.50;78.40;;;;;;5115017;28;20113;-75
2022/12/13 00:50:29;;;;;;;18.40;8.13;;;-1.50;78.60;;;;;;5115091;28;20028;-75
2022/12/13 00:52:55;;;;;;;16.10;8.32;;;-1.50;78.60;;;;;;5114744;28;20107;-75
2022/12/13 00:55:21;;;;;;;21.33;8.10;;;-1.50;78.30;;;;;;5113943;28;20032;-75
2022/12/13 00:57:46;;;;;;;20.38;8.68;;;-1.50;78.40;;;;;;5113961;28;20035;-75
2022/12/13 01:00:12;;;;;;;24.73;8.52;;;-1.40;78.30;;;;;;5114771;28;20032;-75
2022/12/13 01:02:38;;;;;;;22.25;8.63;;;-1.40;78.10;;;;;;5113817;28;20043;-75
2022/12/13 01:05:04;;;;;;;16.75;8.45;;;-1.40;78.00;;;;;;5096914;28;20036;-75
2022/12/13 01:07:30;;;;;;;15.13;6.88;;;-1.40;77.90;;;;;;5113687;28;20027;-75
2022/12/13 01:09:57;;;;;;;15.13;7.95;;;-1.40;78.00;;;;;;5096796;28;20532;-75
2022/12/13 01:12:23;;;;;;;16.60;7.32;;;-1.50;78.10;;;;;;5113530;28;20031;-75
2022/12/13 01:14:48;;;;;;;18.08;7.95;;;-1.50;78.20;;;;;;5114501;28;20032;-75
2022/12/13 01:17:14;;;;;;;16.08;6.97;;;-1.50;78.00;;;;;;5114505;28;20050;-75
2022/12/13 01:19:40;;;;;;;20.45;7.32;;;-1.50;77.90;;;;;;5114432;28;20470;-75
2022/12/13 01:22:06;;;;;;;15.02;7.45;;;-1.50;77.90;;;;;;5113423;28;20036;-75
2022/12/13 01:24:32;;;;;;;17.95;8.40;;;-1.60;78.30;;;;;;5113404;28;20035;-75
2022/12/13 01:26:58;;;;;;;14.70;7.75;;;-1.70;77.70;;;;;;5114313;28;20036;-75
2022/12/13 01:29:26;;;;;;;20.35;7.55;;;-1.70;78.10;;;;;;5113265;28;20036;-75
2022/12/13 01:31:52;;;;;;;17.60;7.75;;;-1.70;78.30;;;;;;5114196;28;20035;-75
2022/12/13 01:34:19;;;;;;;16.25;7.75;;;-1.70;78.30;;;;;;5113223;28;20036;-75
2022/12/13 01:36:46;;;;;;;18.02;8.32;;;-1.70;78.30;;;;;;5113146;28;20031;-75
2022/12/13 01:39:13;;;;;;;20.23;8.60;;;-1.60;78.20;;;;;;5114066;28;20447;-75
2022/12/13 01:41:39;;;;;;;17.40;7.68;;;-1.60;78.10;;;;;;5113956;28;20063;-75
2022/12/13 01:44:26;;;;;;;21.33;7.80;;;-1.60;78.00;;;;;;5114018;28;20020;-75
2022/12/13 01:46:51;;;;;;;24.20;7.55;;;-1.60;77.90;;;;;;5112664;28;20032;-75
2022/12/13 01:49:18;;;;;;;18.38;7.60;;;-1.60;77.90;;;;;;5113905;28;20035;-75
2022/12/13 01:51:48;;;;;;;21.35;8.52;;;-1.60;77.70;;;;;;5112871;28;20081;-75
2022/12/13 01:54:17;;;;;;;16.13;8.05;;;-1.60;77.40;;;;;;5113721;28;20052;-75
2022/12/13 01:56:48;;;;;;;15.73;7.28;;;-1.60;77.40;;;;;;5112846;28;20046;-75
2022/12/13 01:59:16;;;;;;;18.52;8.45;;;-1.70;77.50;;;;;;5112462;28;20090;-75
2022/12/13 02:01:42;;;;;;;13.50;7.00;;;-1.70;77.80;;;;;;5112661;28;20024;-75
2022/12/13 02:04:08;;;;;;;24.08;9.50;;;-1.70;77.70;;;;;;5095851;28;20035;-75
2022/12/13 02:06:42;;;;;;;19.17;8.90;;;-1.70;77.40;;;;;;5113683;28;20021;-75
2022/12/13 02:09:09;;;;;;;17.33;7.93;;;-1.80;77.40;;;;;;5113571;28;20031;-75
2022/12/13 02:11:37;;;;;;;18.08;7.65;;;-1.80;78.60;;;;;;5113610;28;20039;-75
2022/12/13 02:14:04;;;;;;;18.98;7.88;;;-1.90;77.80;;;;;;5112466;28;20123;-75
2022/12/13 02:17:07;;;;;;;19.02;9.20;;;-2.00;77.80;;;;;;5112639;28;20093;-75
2022/12/13 02:19:52;;;;;;;21.02;8.70;;;-2.00;77.90;;;;;;5112507;28;20024;-75
2022/12/13 02:22:36;;;;;;;15.85;7.45;;;-2.00;78.00;;;;;;5113456;28;20036;-75
2022/12/13 02:25:02;;;;;;;16.67;8.70;;;-2.00;78.00;;;;;;5113511;28;20108;-75
2022/12/13 02:27:30;;;;;;;19.30;8.60;;;-2.00;78.10;;;;;;5113486;28;20016;-75
2022/12/13 02:30:30;;;;;;;21.00;8.55;;;-2.10;77.90;;;;;;5112452;28;20024;-75
2022/12/13 02:33:18;;;;;;;21.92;8.07;;;-2.10;78.00;;;;;;5113573;28;20028;-75
2022/12/13 02:35:58;;;;;;;19.10;6.78;;;-2.10;77.90;;;;;;5113412;28;20444;-75
2022/12/13 02:38:48;;;;;;;28.33;9.57;;;-2.10;78.40;;;;;;5113491;28;20027;-75
2022/12/13 02:41:35;;;;;;;20.23;6.97;;;-2.10;78.40;;;;;;5113424;28;20060;-75
2022/12/13 02:44:11;;;;;;;14.30;7.20;;;-2.10;78.40;;;;;;5113318;28;20125;-75
2022/12/13 02:46:42;;;;;;;15.45;8.02;;;-2.10;78.50;;;;;;5112366;28;20020;-75
2022/12/13 02:49:09;;;;;;;19.63;7.95;;;-2.10;78.40;;;;;;5112256;28;20043;-75
2022/12/13 02:51:37;;;;;;;17.55;7.93;;;-2.10;78.30;;;;;;5113255;28;20095;-75
2022/12/13 02:54:03;;;;;;;23.00;9.45;;;-2.20;79.30;;;;;;5113046;28;20070;-75
2022/12/13 02:56:31;;;;;;;19.92;9.20;;;-2.20;78.60;;;;;;5112140;28;20033;-75
2022/12/13 02:58:58;;;;;;;18.73;7.60;;;-2.20;78.40;;;;;;5113248;28;20035;-75
2022/12/13 03:01:50;;;;;;;20.92;8.65;;;-2.20;78.70;;;;;;5112115;28;20024;-75
2022/12/13 03:04:31;;;;;;;24.13;8.73;;;-2.20;78.70;;;;;;5107150;28;20024;-75
2022/12/13 03:07:20;;;;;;;18.83;7.95;;;-2.30;78.70;;;;;;5112129;28;20020;-75
2022/12/13 03:10:03;;;;;;;13.73;6.95;;;-2.30;78.80;;;;;;5115718;28;20035;-75
2022/12/13 03:16:02;;;;;;;18.58;7.78;;;-2.30;78.90;;;;;;5116964;28;20112;-75
2022/12/13 03:18:31;;;;;;;23.88;8.52;;;-2.30;79.10;;;;;;5116830;28;20084;-75
2022/12/13 03:21:00;;;;;;;15.82;8.18;;;-2.40;79.20;;;;;;5116671;28;20031;-75
2022/12/13 03:23:27;;;;;;;21.40;8.35;;;-2.40;79.40;;;;;;5116684;28;20107;-75
2022/12/13 03:25:55;;;;;;;18.33;7.80;;;-2.40;79.40;;;;;;5116653;28;20024;-75
2022/12/13 03:28:21;;;;;;;24.45;8.52;;;-2.30;79.50;;;;;;5116613;28;20028;-75
2022/12/13 03:30:47;;;;;;;21.23;8.15;;;-2.30;79.40;;;;;;5116550;28;20044;-75
2022/12/13 03:33:13;;;;;;;19.60;7.80;;;-2.40;79.20;;;;;;5098674;28;20054;-75
2022/12/13 03:35:40;;;;;;;17.83;8.77;;;-2.40;79.00;;;;;;5116603;28;20088;-75
2022/12/13 03:38:06;;;;;;;22.52;7.70;;;-2.40;80.00;;;;;;5116410;28;20399;-75
2022/12/13 03:40:33;;;;;;;16.98;7.40;;;-2.40;79.20;;;;;;5116364;28;20078;-75
2022/12/13 03:42:59;;;;;;;17.80;7.47;;;-2.40;78.90;;;;;;5116265;28;20032;-75
2022/12/13 03:45:25;;;;;;;21.20;7.10;;;-2.40;79.10;;;;;;5116284;28;20463;-75
2022/12/13 03:47:50;;;;;;;15.85;7.80;;;-2.40;79.00;;;;;;5116220;28;20027;-75
2022/12/13 03:50:16;;;;;;;25.77;7.47;;;-2.40;79.00;;;;;;5116174;28;20024;-75
2022/12/13 03:52:43;;;;;;;18.95;7.95;;;-2.40;79.10;;;;;;5115163;28;20070;-75
2022/12/13 03:55:09;;;;;;;17.35;7.97;;;-2.40;79.20;;;;;;5116124;28;20047;-75
2022/12/13 03:57:34;;;;;;;17.02;7.25;;;-2.40;79.00;;;;;;5116041;28;20035;-75
2022/12/13 04:00:00;;;;;;;23.83;9.38;;;-2.40;79.10;;;;;;5115999;28;20027;-75
2022/12/13 04:02:25;;;;;;;18.65;7.78;;;-2.30;79.00;;;;;;5114854;28;20032;-75
2022/12/13 04:04:51;;;;;;;19.13;9.02;;;-2.30;78.90;;;;;;5115890;28;20028;-75
2022/12/13 04:07:17;;;;;;;20.48;8.23;;;-2.30;78.90;;;;;;5114971;28;20036;-75
2022/12/13 04:09:42;;;;;;;18.63;7.30;;;-2.30;78.60;;;;;;5115727;28;20025;-75
2022/12/13 04:14:52;;;;;;;19.20;8.13;;;-2.20;78.60;;;;;;5115104;28;20375;-75
2022/12/13 04:17:18;;;;;;;22.17;9.20;;;-2.20;78.60;;;;;;5114730;28;20091;-75
2022/12/13 04:19:43;;;;;;;15.35;7.40;;;-2.30;79.40;;;;;;5115604;28;20031;-75
2022/12/13 04:22:09;;;;;;;19.02;7.78;;;-2.30;78.80;;;;;;5113956;28;20033;-75
2022/12/13 04:24:34;;;;;;;19.02;7.25;;;-2.20;79.00;;;;;;5115539;28;20045;-75
2022/12/13 04:27:00;;;;;;;27.88;8.15;;;-2.30;79.00;;;;;;5114432;28;20055;-75
2022/12/13 04:29:26;;;;;;;21.75;8.73;;;-2.20;78.90;;;;;;5115456;28;20036;-75
2022/12/13 04:31:52;;;;;;;17.00;8.00;;;-2.30;78.70;;;;;;5115340;28;20055;-75
2022/12/13 04:34:17;;;;;;;17.33;8.10;;;-2.30;78.70;;;;;;5115330;28;20085;-75
2022/12/13 04:36:43;;;;;;;21.10;8.48;;;-2.30;78.80;;;;;;5097309;28;20042;-75
2022/12/13 04:39:08;;;;;;;21.45;7.38;;;-2.30;78.60;;;;;;5114291;28;20059;-75
2022/12/13 04:41:35;;;;;;;16.02;7.20;;;-2.30;78.90;;;;;;5114314;28;20051;-75
2022/12/13 04:44:02;;;;;;;19.30;8.32;;;-2.30;78.90;;;;;;5115150;28;20036;-75
2022/12/13 04:46:28;;;;;;;20.48;8.02;;;-2.20;78.90;;;;;;5115087;28;20031;-75
2022/12/13 04:48:54;;;;;;;18.75;8.05;;;-2.20;78.80;;;;;;5114124;28;20028;-75
2022/12/13 04:51:20;;;;;;;17.33;6.90;;;-2.20;78.50;;;;;;5114026;28;20024;-75
2022/12/13 04:53:45;;;;;;;20.30;8.35;;;-2.20;78.40;;;;;;5113862;28;20052;-75
2022/12/13 04:56:11;;;;;;;17.15;7.45;;;-2.20;78.30;;;;;;5113991;28;20020;-75
2022/12/13 04:58:36;;;;;;;18.95;8.88;;;-2.30;78.60;;;;;;5113833;28;20416;-75
2022/12/13 05:01:05;;;;;;;27.05;8.27;;;-2.30;78.70;;;;;;5113704;28;20032;-75
2022/12/13 05:03:31;;;;;;;20.90;8.20;;;-2.30;78.70;;;;;;5113977;28;20024;-75
2022/12/13 05:05:57;;;;;;;20.73;8.20;;;-2.40;78.70;;;;;;5113711;28;20046;-75
2022/12/13 05:08:22;;;;;;;17.52;7.40;;;-2.40;78.80;;;;;;5113585;28;20032;-75
2022/12/13 05:10:48;;;;;;;23.38;7.93;;;-2.40;79.30;;;;;;5114592;28;20025;-75
2022/12/13 05:13:13;;;;;;;17.42;7.63;;;-2.40;79.50;;;;;;5113622;28;20029;-75
2022/12/13 05:15:39;;;;;;;17.60;7.15;;;-2.50;79.40;;;;;;5114531;28;20055;-75
2022/12/13 05:18:05;;;;;;;11.32;6.40;;;-2.50;79.50;;;;;;5113464;28;20111;-75
2022/12/13 05:20:33;;;;;;;19.00;8.15;;;-2.50;79.60;;;;;;5114556;28;20039;-75
2022/12/13 05:22:59;;;;;;;20.40;8.18;;;-2.60;80.00;;;;;;5114281;28;20075;-75
2022/12/13 05:25:25;;;;;;;20.55;7.18;;;-2.50;79.30;;;;;;5114376;28;20094;-75
2022/12/13 05:27:51;;;;;;;15.90;7.43;;;-2.60;79.00;;;;;;5114325;28;20031;-75
2022/12/13 05:30:17;;;;;;;14.60;6.45;;;-2.50;79.00;;;;;;5114131;28;20021;-75
2022/12/13 05:32:42;;;;;;;15.93;6.75;;;-2.50;78.90;;;;;;5113363;28;20052;-75
2022/12/13 05:35:08;;;;;;;17.40;8.60;;;-2.50;79.90;;;;;;5114139;28;20032;-75
2022/12/13 05:37:34;;;;;;;17.02;7.35;;;-2.50;79.20;;;;;;5114159;28;20046;-75
2022/12/13 05:39:59;;;;;;;21.05;7.97;;;-2.50;79.30;;;;;;5113171;28;20032;-75
2022/12/13 05:42:25;;;;;;;15.40;6.68;;;-2.40;79.30;;;;;;5113938;28;20058;-75
2022/12/13 05:44:51;;;;;;;22.70;6.80;;;-2.40;79.20;;;;;;5096077;28;20092;-75
2022/12/13 05:47:17;;;;;;;18.15;7.43;;;-2.40;79.20;;;;;;5112599;28;20032;-75
2022/12/13 05:49:44;;;;;;;13.75;6.97;;;-2.40;79.20;;;;;;5113072;28;20031;-75
2022/12/13 05:52:18;;;;;;;17.63;7.28;;;-2.40;79.00;;;;;;5113854;28;20058;-76
2022/12/13 05:54:44;;;;;;;17.92;7.57;;;-2.50;79.30;;;;;;5113897;28;20083;-75
2022/12/13 05:57:09;;;;;;;16.33;7.75;;;-2.50;80.10;;;;;;5095947;28;20066;-75
2022/12/13 05:59:35;;;;;;;23.67;7.35;;;-2.50;79.10;;;;;;5112909;28;20031;-76
2022/12/13 06:02:01;;;;;;;23.23;7.93;;;-2.50;79.10;;;;;;5113701;28;20058;-75
2022/12/13 06:04:26;;;;;;;17.67;8.40;;;-2.50;79.20;;;;;;5113712;28;20032;-75
2022/12/13 06:06:52;;;;;;;16.48;7.53;;;-2.50;79.40;;;;;;5095769;28;20035;-76
2022/12/13 06:09:18;;;;;;;17.02;7.72;;;-2.50;79.40;;;;;;5113568;28;20032;-75
2022/12/13 06:11:44;;;;;;;18.48;7.75;;;-2.50;79.40;;;;;;5112711;28;20032;-75
2022/12/13 06:14:10;;;;;;;21.95;8.20;;;-2.50;79.40;;;;;;5113586;28;20043;-75
2022/12/13 06:16:35;;;;;;;16.17;7.20;;;-2.40;79.60;;;;;;5112612;28;20032;-75
2022/12/13 06:19:01;;;;;;;30.65;9.00;;;-2.50;79.40;;;;;;5112579;28;20034;-76
2022/12/13 06:21:27;;;;;;;24.90;8.40;;;-2.50;79.20;;;;;;5112512;28;20035;-75
2022/12/13 06:23:53;;;;;;;17.10;8.20;;;-2.50;79.20;;;;;;5112480;28;20027;-76
2022/12/13 06:26:19;;;;;;;20.52;8.88;;;-2.50;79.30;;;;;;5113450;28;20027;-75
2022/12/13 06:28:44;;;;;;;19.55;8.45;;;-2.50;79.20;;;;;;5112479;28;20044;-75
2022/12/13 06:31:10;;;;;;;19.60;7.95;;;-2.50;79.30;;;;;;5113451;28;20053;-76
2022/12/13 06:33:37;;;;;;;15.50;7.63;;;-2.50;79.40;;;;;;5113408;28;20036;-75
2022/12/13 06:36:04;;;;;;;25.52;7.75;;;-2.50;79.40;;;;;;5113431;28;20053;-75
2022/12/13 06:38:30;;;;;;;19.08;8.05;;;-2.50;79.30;;;;;;5112444;28;20044;-75
2022/12/13 06:41:13;;;;;;;25.70;8.35;;;-2.60;79.10;;;;;;5113287;28;20024;-76
2022/12/13 06:43:46;;;;;;;13.23;6.90;;;-2.60;79.30;;;;;;5113377;28;20016;-76
2022/12/13 06:46:13;;;;;;;18.25;7.00;;;-2.60;79.40;;;;;;5117459;28;20035;-76
2022/12/13 06:48:41;;;;;;;20.20;7.53;;;-2.60;79.00;;;;;;5117376;28;20028;-76
2022/12/13 06:51:07;;;;;;;15.82;7.20;;;-2.60;79.00;;;;;;5117324;28;20036;-76
2022/12/13 06:53:36;;;;;;;19.67;7.28;;;-2.60;79.10;;;;;;5115978;28;20051;-75
2022/12/13 06:56:07;;;;;;;17.40;7.55;;;-2.60;79.60;;;;;;5117239;28;20045;-76
2022/12/13 06:58:36;;;;;;;20.73;8.27;;;-2.60;80.00;;;;;;5117216;28;20055;-75
2022/12/13 07:01:06;;;;;;;18.30;7.13;;;-2.70;79.70;;;;;;5117035;28;20028;-75
2022/12/13 07:03:32;;;;;;;23.77;8.32;;;-2.80;79.30;;;;;;5117074;28;20043;-75
2022/12/13 07:05:59;;;;;;;15.80;7.28;;;-2.80;79.20;;;;;;5116006;28;20034;-75
2022/12/13 07:08:25;;;;;;;19.73;9.00;;;-2.90;80.40;;;;;;5116870;28;20024;-75
2022/12/13 07:10:52;;;;;;;18.92;8.27;;;-2.90;79.80;;;;;;5115867;28;20096;-75
2022/12/13 07:13:19;;;;;;;16.33;7.97;;;-2.80;80.00;;;;;;5116844;28;20031;-75
2022/12/13 07:15:45;;;;;;;17.98;7.90;;;-2.80;80.00;;;;;;5116854;28;20082;-75
2022/12/13 07:18:11;;;;;;;18.20;8.32;;;-2.70;80.10;;;;;;5115875;28;20020;-75
2022/12/13 07:20:39;;;;;;;16.63;7.78;;;-2.70;80.10;;;;;;5116757;28;20043;-75
2022/12/13 07:23:05;;;;;;;18.73;7.97;;;-2.70;80.00;;;;;;5115628;28;20126;-75
2022/12/13 07:25:30;;;;;;;17.98;8.25;;;-2.60;79.70;;;;;;5098689;28;20028;-75
2022/12/13 07:28:01;;;;;;;21.35;7.80;;;-2.60;79.70;;;;;;5116387;28;20048;-76
2022/12/13 07:30:27;;;;;;;23.30;7.00;;;-2.70;79.60;;;;;;5115701;28;20566;-75
2022/12/13 07:32:53;;;;;;;23.40;8.55;;;-2.80;79.60;;;;;;5115651;28;20035;-75
2022/12/13 07:35:19;;;;;;;15.52;7.65;;;-2.70;79.80;;;;;;5116474;28;20031;-75
2022/12/13 07:37:44;;;;;;;21.33;7.55;;;-2.80;79.70;;;;;;5116389;28;20039;-75
2022/12/13 07:40:10;;;;;;;17.85;7.25;;;-2.70;80.00;;;;;;5116387;28;20035;-75
2022/12/13 07:42:36;;;;;;;24.85;8.02;;;-2.70;80.40;;;;;;5115240;28;20036;-75
2022/12/13 07:45:02;;;;;;;19.83;8.38;;;-2.60;80.10;;;;;;5116239;28;20033;-75
2022/12/13 07:47:29;;;;;;;18.05;7.57;;;-2.60;80.10;;;;;;5116211;28;20063;-75
2022/12/13 07:49:55;;;;;;;15.88;8.05;;;-2.60;80.00;;;;;;5098293;28;20032;-75
2022/12/13 07:52:20;;;;;;;20.65;9.23;;;-2.60;80.10;;;;;;5116008;28;20032;-76
2022/12/13 07:54:46;;;;;;;15.63;8.55;;;-2.50;80.30;;;;;;5115763;28;20036;-75
2022/12/13 07:57:12;;;;;;;20.88;8.65;;;-2.50;80.30;;;;;;5114583;28;20054;-76
2022/12/13 07:59:37;;;;;;;22.75;8.50;;;-2.50;80.10;;;;;;5116038;28;20024;-75
2022/12/13 08:02:05;;;;;;;22.88;9.57;;;-2.60;80.10;;;;;;5114993;28;20032;-75
2022/12/13 08:04:31;;;;;;;19.15;8.20;;;-2.60;80.20;;;;;;5114902;28;20016;-76
2022/12/13 08:06:56;;;;;;;21.77;8.02;;;-2.50;80.50;;;;;;5097971;28;20024;-75
2022/12/13 08:09:22;;;;;;;21.75;10.75;;;-2.50;80.60;;;;;;5097815;28;20032;-75
2022/12/13 08:11:48;;;;;;;20.35;8.80;;;-2.50;80.70;;;;;;5115866;28;20032;-75
2022/12/13 08:14:13;;;;;;;20.15;8.13;;;-2.40;80.70;;;;;;5114698;28;20043;-75
2022/12/13 08:16:39;;;;;;;21.15;9.32;;;-2.40;80.90;;;;;;5114657;28;20039;-75
2022/12/13 08:19:05;;;;;;;25.10;9.85;;;-2.30;81.00;;;;;;5114610;28;20033;-76
2022/12/13 08:21:35;;;;;;;27.13;9.70;;;-2.30;80.90;;;;;;5114490;28;20032;-76
2022/12/13 08:24:01;;;;;;;19.10;9.15;;;-2.30;81.00;;;;;;5114576;28;20095;-76
2022/12/13 08:26:27;;;;;;;22.88;9.75;;;-2.20;81.00;;;;;;5114513;28;20028;-75
2022/12/13 08:28:52;;;;;;;25.77;10.52;;;-2.20;80.90;;;;;;5114453;28;20040;-75
2022/12/13 08:31:18;;;;;;;30.75;9.35;;;-2.20;81.10;;;;;;5114392;28;20055;-75
2022/12/13 08:33:46;;;;;;;23.52;9.10;;;-2.20;81.30;;;;;;5115199;28;20498;-76
2022/12/13 08:36:16;;;;;;;21.77;8.38;;;-2.20;81.70;;;;;;5097733;28;20052;-76
2022/12/13 08:38:44;;;;;;;31.60;10.98;;;-2.10;81.80;;;;;;5115414;28;20028;-75
2022/12/13 08:41:10;;;;;;;21.75;8.35;;;-2.00;82.00;;;;;;5115141;28;20106;-76
2022/12/13 08:43:36;;;;;;;22.02;10.30;;;-1.90;81.90;;;;;;5115157;28;20040;-75
2022/12/13 08:46:02;;;;;;;19.08;9.75;;;-1.80;81.90;;;;;;5114041;28;20028;-75
2022/12/13 08:48:28;;;;;;;19.90;10.00;;;-1.60;82.20;;;;;;5114079;28;20028;-76
2022/12/13 08:50:54;;;;;;;29.42;11.45;;;-1.30;81.70;;;;;;5114993;28;20024;-76
2022/12/13 08:53:19;;;;;;;28.88;10.55;;;-1.30;81.30;;;;;;5113872;28;20051;-76
2022/12/13 08:55:45;;;;;;;27.00;11.25;;;-1.20;81.10;;;;;;5114021;28;20020;-76
2022/12/13 08:58:13;;;;;;;20.65;10.85;;;-1.10;80.90;;;;;;5113979;28;20049;-76
2022/12/13 09:00:39;;;;;;;29.67;10.77;;;-1.10;81.60;;;;;;5113879;28;20012;-75
2022/12/13 09:03:05;;;;;;;33.70;11.23;;;-1.10;80.90;;;;;;5113772;28;20024;-76
2022/12/13 09:05:32;;;;;;;25.15;10.57;;;-1.00;81.00;;;;;;5114840;28;20054;-75
2022/12/13 09:07:58;;;;;;;24.10;10.70;;;-1.00;81.10;;;;;;5114520;28;20020;-76
2022/12/13 09:10:24;;;;;;;26.73;10.52;;;-0.90;81.20;;;;;;5113578;28;20025;-76
2022/12/13 09:12:50;;;;;;;29.55;12.35;;;-0.90;81.40;;;;;;5114748;28;20054;-76
2022/12/13 09:15:16;;;;;;;27.52;11.38;;;-0.90;81.40;;;;;;5114520;28;20028;-76
2022/12/13 09:17:42;;;;;;;25.40;10.85;;;-0.80;81.30;;;;;;5113721;28;20051;-75
2022/12/13 09:20:10;;;;;;;28.23;10.45;;;-0.70;81.30;;;;;;5113520;28;20067;-76
2022/12/13 09:22:36;;;;;;;25.00;11.38;;;-0.60;81.00;;;;;;5113329;28;20028;-75
2022/12/13 09:25:03;;;;;;;28.63;11.05;;;-0.60;80.80;;;;;;5113425;28;20039;-75
2022/12/13 09:27:30;;;;;;;28.83;11.52;;;-0.70;81.00;;;;;;5114294;28;20032;-75
2022/12/13 09:29:57;;;;;;;24.73;10.00;;;-0.70;81.10;;;;;;5113381;28;20051;-75
2022/12/13 09:32:24;;;;;;;24.80;9.32;;;-0.50;81.20;;;;;;5096202;28;20084;-76
2022/12/13 09:34:49;;;;;;;20.27;8.68;;;-0.50;80.90;;;;;;5114135;28;20024;-75
2022/12/13 09:37:15;;;;;;;24.77;10.80;;;-0.50;80.80;;;;;;5114132;28;20039;-76
2022/12/13 09:39:41;;;;;;;28.65;9.93;;;-0.40;80.80;;;;;;5114088;28;20028;-76
2022/12/13 09:42:18;;;;;;;26.20;11.00;;;-0.40;80.70;;;;;;5112960;28;20097;-75
2022/12/13 09:44:53;;;;;;;29.27;10.80;;;-0.40;80.70;;;;;;5114059;28;20027;-76
2022/12/13 09:47:40;;;;;;;21.33;9.65;;;-0.30;80.80;;;;;;5113974;28;20024;-76
2022/12/13 09:50:11;;;;;;;24.40;9.40;;;-0.30;80.60;;;;;;5113995;28;20024;-75
2022/12/13 09:52:43;;;;;;;23.80;10.07;;;-0.30;80.80;;;;;;5112670;28;20048;-75
2022/12/13 09:55:30;;;;;;;25.60;10.27;;;-0.20;81.10;;;;;;5112959;28;20028;-75
2022/12/13 09:57:57;;;;;;;20.52;9.18;;;0.00;81.30;;;;;;5113860;28;20028;-75
2022/12/13 10:00:26;;;;;;;22.42;9.75;;;0.00;80.70;;;;;;5112817;28;20095;-75
2022/12/13 10:02:57;;;;;;;27.20;11.48;;;0.00;80.40;;;;;;5112607;28;20035;-76
2022/12/13 10:05:34;;;;;;;28.33;10.60;;;0.00;80.50;;;;;;5113701;28;20024;-76
2022/12/13 10:08:08;;;;;;;29.88;11.40;;;0.10;80.80;;;;;;5113802;28;20043;-75
2022/12/13 10:10:33;;;;;;;25.23;10.98;;;0.10;80.40;;;;;;5113735;28;20024;-76
2022/12/13 10:13:07;;;;;;;27.75;11.38;;;0.10;80.50;;;;;;5113513;28;20092;-75
2022/12/13 10:15:36;;;;;;;26.58;10.55;;;0.20;80.60;;;;;;5113603;28;20036;-76
2022/12/13 10:18:03;;;;;;;22.88;9.48;;;0.40;80.60;;;;;;5113125;28;20028;-76
2022/12/13 10:20:29;;;;;;;20.38;9.90;;;0.90;80.30;;;;;;5112257;28;20043;-75
2022/12/13 10:22:55;;;;;;;38.55;11.50;;;0.90;78.50;;;;;;5113420;28;20042;-75
2022/12/13 10:25:49;;;;;;;28.83;11.63;;;1.20;78.40;;;;;;5113493;28;20017;-75
2022/12/13 10:28:17;;;;;;;28.63;10.88;;;1.40;78.20;;;;;;5109167;28;20056;-75
2022/12/13 10:30:44;;;;;;;29.65;10.80;;;1.40;77.40;;;;;;5112495;28;20024;-76
2022/12/13 10:33:40;;;;;;;26.27;11.07;;;1.30;77.80;;;;;;5113430;28;20051;-75
2022/12/13 10:36:28;;;;;;;28.83;10.73;;;1.20;77.80;;;;;;5111672;28;20036;-76
2022/12/13 10:38:54;;;;;;;22.13;11.07;;;0.90;77.10;;;;;;5113431;28;20046;-75
2022/12/13 10:41:28;;;;;;;30.73;11.23;;;0.80;78.50;;;;;;5113348;28;20036;-75
2022/12/13 10:44:21;;;;;;;26.70;10.88;;;0.80;79.30;;;;;;5112442;28;20028;-75
2022/12/13 10:47:02;;;;;;;29.67;10.88;;;0.80;79.80;;;;;;5113317;28;20016;-75
2022/12/13 10:49:37;;;;;;;25.83;10.50;;;0.80;80.10;;;;;;5113333;28;20051;-75
2022/12/13 10:52:03;;;;;;;21.55;8.50;;;0.80;80.10;;;;;;5112243;28;20050;-75
2022/12/13 10:54:35;;;;;;;30.30;11.30;;;0.90;80.20;;;;;;5113076;28;20064;-74
2022/12/13 10:57:01;;;;;;;25.55;10.40;;;0.90;80.00;;;;;;5112243;28;20091;-75
2022/12/13 10:59:33;;;;;;;26.83;10.55;;;0.90;80.10;;;;;;5111989;28;20046;-74
2022/12/13 11:02:00;;;;;;;24.33;10.88;;;0.90;80.40;;;;;;5111988;28;20050;-76
2022/12/13 11:04:33;;;;;;;30.65;12.05;;;0.90;80.80;;;;;;5112983;28;20020;-74
2022/12/13 11:07:23;;;;;;;14.90;6.82;;;0.90;80.60;;;;;;5111942;28;20021;-75
2022/12/13 11:09:48;;;;;;;25.52;10.02;;;0.80;80.60;;;;;;5112942;28;20032;-75
2022/12/13 11:12:18;;;;;;;29.65;11.60;;;0.80;81.30;;;;;;5112052;28;20092;-75
2022/12/13 11:15:00;;;;;;;27.63;10.35;;;0.80;82.20;;;;;;5113006;28;20031;-75
2022/12/13 11:17:28;;;;;;;32.08;10.63;;;0.80;81.20;;;;;;5112897;28;20024;-75
2022/12/13 11:19:59;;;;;;;24.38;11.07;;;0.80;81.40;;;;;;5112936;28;20020;-74
2022/12/13 11:22:31;;;;;;;29.55;10.40;;;0.80;81.70;;;;;;5112929;28;20024;-74
2022/12/13 11:25:06;;;;;;;28.08;11.77;;;0.80;82.00;;;;;;5111640;28;20012;-75
2022/12/13 11:27:53;;;;;;;23.83;10.45;;;0.90;82.10;;;;;;5112908;28;20024;-75
2022/12/13 11:30:39;;;;;;;25.98;10.60;;;1.00;82.00;;;;;;5113103;28;20101;-75
2022/12/13 11:33:18;;;;;;;29.88;11.07;;;1.10;81.60;;;;;;5115541;28;20027;-75
2022/12/13 11:35:50;;;;;;;28.83;10.45;;;1.10;81.80;;;;;;5116704;28;20020;-75
2022/12/13 11:38:36;;;;;;;24.15;10.68;;;1.20;82.10;;;;;;5115589;28;20035;-75
2022/12/13 11:41:21;;;;;;;32.13;11.07;;;1.30;82.00;;;;;;5116489;28;20055;-76
2022/12/13 11:43:55;;;;;;;28.15;11.35;;;1.30;81.60;;;;;;5116373;28;20079;-75
2022/12/13 11:46:33;;;;;;;25.63;11.45;;;1.30;81.50;;;;;;5116277;28;20016;-75
2022/12/13 11:49:05;;;;;;;26.80;10.65;;;1.40;81.20;;;;;;5116280;28;20079;-75
2022/12/13 11:51:47;;;;;;;28.40;10.73;;;1.40;81.50;;;;;;5116205;28;20016;-75
2022/12/13 11:54:41;;;;;;;26.23;11.55;;;1.50;81.10;;;;;;5115985;28;20055;-75
2022/12/13 11:57:22;;;;;;;28.67;11.65;;;1.50;80.80;;;;;;5116156;28;20020;-75
2022/12/13 11:59:56;;;;;;;27.42;11.30;;;1.60;81.30;;;;;;5116123;28;20079;-75
2022/12/13 12:02:33;;;;;;;26.27;10.32;;;1.60;80.70;;;;;;5115879;28;20028;-75
2022/12/13 12:05:06;;;;;;;26.10;10.95;;;1.60;80.80;;;;;;5114850;28;20047;-75
2022/12/13 12:07:41;;;;;;;26.60;10.02;;;1.60;81.10;;;;;;5115756;28;20020;-75
2022/12/13 12:10:13;;;;;;;22.83;9.57;;;1.70;80.90;;;;;;5114865;28;20023;-75
2022/12/13 12:12:44;;;;;;;30.13;10.45;;;1.70;80.80;;;;;;5115616;28;20088;-75
2022/12/13 12:15:27;;;;;;;26.98;10.63;;;1.80;81.00;;;;;;5115583;28;20084;-76
2022/12/13 12:17:54;;;;;;;28.45;10.57;;;1.80;80.40;;;;;;5115634;28;20028;-75
2022/12/13 12:20:51;;;;;;;35.78;11.68;;;1.90;80.70;;;;;;5097749;28;20111;-75
2022/12/13 12:23:19;;;;;;;24.73;9.88;;;2.00;80.40;;;;;;5084222;28;20064;-75
2022/12/13 12:26:02;;;;;;;16.50;6.45;;;2.10;80.50;;;;;;5115497;28;20482;-76
2022/12/13 12:28:30;;;;;;;;;;;2.30;79.50;;;;;;5114927;28;20032;-76
2022/12/13 12:31:21;;;;;;;27.75;11.32;;;2.80;79.10;;;;;;5115505;28;19935;-75
2022/12/13 12:34:14;;;;;;;29.95;11.70;;;3.50;76.90;;;;;;5115402;28;20024;-75
2022/12/13 12:36:59;;;;;;;27.77;11.10;;;4.00;74.50;;;;;;5114192;28;20040;-76
2022/12/13 12:39:54;;;;;;;33.58;12.65;;;3.90;73.90;;;;;;5115348;28;20395;-76
2022/12/13 12:42:30;;;;;;;26.35;10.38;;;3.60;74.40;;;;;;5114761;28;20050;-76
2022/12/13 12:45:16;;;;;;;28.42;11.25;;;3.30;75.00;;;;;;5115317;28;20020;-75
2022/12/13 12:48:15;;;;;;;34.55;10.65;;;3.10;75.50;;;;;;5114222;28;20028;-75
2022/12/13 12:50:52;;;;;;;25.23;9.88;;;2.90;75.80;;;;;;5115047;28;20018;-75
2022/12/13 12:53:37;;;;;;;22.85;8.88;;;2.70;76.00;;;;;;5114697;28;20056;-75
2022/12/13 12:56:20;;;;;;;23.92;10.45;;;2.60;76.60;;;;;;5114851;28;20032;-76